Avon, IL

4:49 AM CDT on August 30, 2015 (GMT -0500)
Little Swan Lake. | | Change Station
CLOSE
Current Station
Personal Weather Station
Location: Roseville, IL
Elevation: 663 ft
Nearby Weather Stations

Elev 663 ft 40.67 °N, 90.53 °W | Updated 3 minutes ago

Fog
Fog
67.6 °F
Feels Like 67.6 °F
N
3.2
Wind Variable Wind from NNW

Today
High -- | Low -- °F
--% Chance of Precip.
Yesterday
High -- | Low -- °F
Precip. -- in
6:26 AM 7:37 PM
Waxing Gibbous, 99% visible
Pressure 30.04 in
Visibility 2.0 miles
Clouds Scattered Clouds 300 ft
Overcast 4500 ft
Dew Point 67 °F
Humidity 99%
Rainfall 0.00 in
Snow Depth Not available.
UV 0 out of 12
Pollen 1.20 out of 12
Air Quality Not available.
Flu Activity Not available.
METAR KMQB 300935Z AUTO 03003KT 2SM BR SCT003 OVC045 19/19 A3004 RMK AO2 T01880187
Pressure 30.04 in
Visibility 2.0 miles
Clouds Scattered Clouds 300 ft
Overcast 4500 ft
Dew Point 67 °F
Humidity 99%
Rainfall 0.00 in
Snow Depth Not available.
UV 0 out of 12
Pollen 1.20 out of 12
Air Quality Not available.
Flu Activity Not available.
METAR KMQB 300935Z AUTO 03003KT 2SM BR SCT003 OVC045 19/19 A3004 RMK AO2 T01880187

10-Day Weather Forecast

×

Almanac

Astronomy

Aug. 30, 2015 Rise Set
Actual Time
Civil Twilight
Nautical Twilight
Astronomical Twilight
Moon
Length of Visible Light
Length of Day
Tomorrow will be .
, % of the Moon is Illuminated

Today's Extremes

State Highs State Lows

Community

WunderPhotos

Upload Photos

1,850,919 photos uploaded!

WunderBlogs® & News

Nearby

Air Quality

  Air Quality AQ Index Pollutant
Not available.

Snow Depth

Station Depth Elevation

Earthquake Activity

City Distance Mag. Time & Date
Minimum magnitude displayed is 2.5.

Coastal Water Temperatures

Place Temperature

Stations

Nearby Weather Stations

Station Location Temp. Windchill Dew Point Humidity Wind Precip. Elev Updated Type